Time;durP1;ratioP1;P1;durP2;ratioP2;P2;SDS_P1;SDS_P2;PMS_P1;PMS_P2;Temp;Humidity;BMP_temperature;BMP_pressure;BME280_temperature;BME280_humidity;BME280_pressure;Samples;Min_cycle;Max_cycle;Signal;HPM_P1;HPM_P2
2021/04/05 00:00:13;;;;;;;27.17;13.95;;;;;;;0.45;77.71;99223.59;1706910;84;21650;-62
2021/04/05 00:02:41;;;;;;;23.67;13.13;;;;;;;0.42;77.67;99226.70;1722945;82;21161;-61
2021/04/05 00:05:22;;;;;;;22.05;13.85;;;;;;;0.28;78.02;99227.33;1733527;82;21711;-61
2021/04/05 00:07:51;;;;;;;21.45;11.97;;;;;;;0.18;78.17;99232.33;1724719;82;21141;-61
2021/04/05 00:10:36;;;;;;;22.50;12.15;;;;;;;0.15;78.05;99231.42;1732025;82;21331;-61
2021/04/05 00:13:09;;;;;;;24.95;13.72;;;;;;;0.17;78.12;99229.88;1706850;84;21188;-61
2021/04/05 00:15:37;;;;;;;25.23;13.55;;;;;;;0.09;78.34;99230.96;1707244;82;21161;-61
2021/04/05 00:18:05;;;;;;;24.18;13.53;;;;;;;-0.04;78.67;99223.82;1712761;82;21200;-61
2021/04/05 00:20:39;;;;;;;23.15;13.50;;;;;;;-0.14;78.87;99224.00;1710071;82;21181;-61
2021/04/05 00:23:09;;;;;;;28.52;14.00;;;;;;;-0.14;78.83;99224.81;1726505;82;21592;-60
2021/04/05 00:25:36;;;;;;;24.43;13.62;;;;;;;-0.14;78.72;99214.63;1715128;82;21619;-60
2021/04/05 00:28:05;;;;;;;25.15;12.70;;;;;;;-0.25;78.99;99208.66;1708468;83;21192;-60
2021/04/05 00:30:35;;;;;;;24.87;14.15;;;;;;;-0.38;79.32;99206.03;1707987;83;21208;-60
2021/04/05 00:33:03;;;;;;;24.70;13.88;;;;;;;-0.41;79.41;99208.63;1711808;83;21241;-60
2021/04/05 00:35:33;;;;;;;23.18;13.65;;;;;;;-0.38;79.41;99204.70;1735954;82;21144;-60
2021/04/05 00:38:10;;;;;;;23.57;13.03;;;;;;;-0.44;79.77;99206.39;1714886;82;21176;-60
2021/04/05 00:40:50;;;;;;;23.02;12.85;;;;;;;-0.52;80.15;99201.27;1733843;83;21196;-59
2021/04/05 00:43:19;;;;;;;24.65;13.55;;;;;;;-0.49;80.33;99202.18;1734641;83;21156;-59
2021/04/05 00:45:47;;;;;;;27.10;14.87;;;;;;;-0.41;80.20;99202.45;1731122;83;21160;-59
2021/04/05 00:48:16;;;;;;;23.02;12.37;;;;;;;-0.42;80.20;99205.64;1720145;82;21661;-59
2021/04/05 00:50:52;;;;;;;25.65;13.58;;;;;;;-0.50;80.58;99194.67;1708668;83;21168;-59
2021/04/05 00:53:27;;;;;;;23.42;12.93;;;;;;;-0.53;80.93;99201.79;1724700;82;21213;-59
2021/04/05 00:55:54;;;;;;;22.67;12.35;;;;;;;-0.41;80.71;99197.11;1718442;82;21113;-59
2021/04/05 00:58:22;;;;;;;22.13;12.30;;;;;;;-0.38;80.62;99199.34;1699498;83;21200;-59
2021/04/05 01:00:55;;;;;;;23.83;11.97;;;;;;;-0.45;80.80;99193.22;1704056;82;21168;-59
2021/04/05 01:03:27;;;;;;;20.97;11.40;;;;;;;-0.47;80.94;99193.45;1714253;83;21145;-59
2021/04/05 01:06:14;;;;;;;19.80;11.33;;;;;;;-0.45;80.80;99191.36;1709331;83;21160;-59
2021/04/05 01:08:42;;;;;;;20.35;12.68;;;;;;;-0.44;80.76;99189.52;1731207;83;21172;-59
2021/04/05 01:11:12;;;;;;;21.95;12.73;;;;;;;-0.36;80.36;99188.76;1720110;83;21165;-59
2021/04/05 01:13:41;;;;;;;23.50;12.20;;;;;;;-0.38;80.36;99192.66;1725558;83;21173;-60
2021/04/05 01:16:09;;;;;;;19.73;11.22;;;;;;;-0.43;80.55;99185.30;1696039;83;21150;-59
2021/04/05 01:18:40;;;;;;;23.92;12.23;;;;;;;-0.38;80.39;99185.98;1759469;81;21210;-59
2021/04/05 01:21:09;;;;;;;20.75;11.63;;;;;;;-0.31;80.01;99178.22;1722354;82;21300;-59
2021/04/05 01:23:37;;;;;;;21.17;11.78;;;;;;;-0.36;80.01;99179.41;1761847;80;21186;-59
2021/04/05 01:26:05;;;;;;;19.25;11.00;;;;;;;-0.39;79.96;99183.02;1776838;80;21129;-59
2021/04/05 01:28:32;;;;;;;20.92;11.40;;;;;;;-0.32;79.55;99179.79;1749196;81;21837;-59
2021/04/05 01:31:02;;;;;;;19.73;11.12;;;;;;;-0.37;79.50;99180.42;1756453;80;21167;-59
2021/04/05 01:33:36;;;;;;;20.50;11.00;;;;;;;-0.46;79.48;99176.34;1767859;80;21226;-59
2021/04/05 01:36:14;;;;;;;19.75;10.58;;;;;;;-0.48;79.22;99181.62;1781293;80;21149;-59
2021/04/05 01:38:46;;;;;;;20.57;11.28;;;;;;;-0.53;79.03;99175.05;1770178;80;21590;-59
2021/04/05 01:41:30;;;;;;;22.07;10.95;;;;;;;-0.65;79.25;99175.95;1751451;81;21275;-59
2021/04/05 01:43:58;;;;;;;21.93;11.45;;;;;;;-0.70;79.23;99172.58;1769307;81;21634;-59
2021/04/05 01:46:30;;;;;;;20.52;11.65;;;;;;;-0.70;79.03;99169.08;1740851;82;21292;-59
2021/04/05 01:49:00;;;;;;;23.18;11.68;;;;;;;-0.77;79.24;99166.44;1762948;81;21717;-59
2021/04/05 01:51:28;;;;;;;24.55;11.20;;;;;;;-0.74;79.37;99162.52;1765850;81;21147;-59
2021/04/05 01:53:57;;;;;;;18.23;10.65;;;;;;;-0.75;79.32;99161.72;1757840;80;21164;-59
2021/04/05 01:56:24;;;;;;;20.10;10.23;;;;;;;-0.74;79.30;99159.84;1740807;82;21593;-59
2021/04/05 01:58:53;;;;;;;20.02;10.75;;;;;;;-0.72;79.19;99168.48;1769417;81;21182;-59
2021/04/05 02:01:24;;;;;;;18.35;10.03;;;;;;;-0.78;79.40;99166.12;1754554;81;21157;-59
2021/04/05 02:03:52;;;;;;;18.48;9.78;;;;;;;-0.75;79.38;99156.38;1720142;82;21211;-59
2021/04/05 02:06:29;;;;;;;21.00;9.95;;;;;;;-0.73;79.15;99162.83;1776706;81;21161;-59
2021/04/05 02:08:58;;;;;;;23.07;10.25;;;;;;;-0.83;79.23;99155.27;1752503;81;21137;-59
2021/04/05 02:11:34;;;;;;;21.48;9.48;;;;;;;-0.86;79.12;99157.55;1750508;81;21157;-59
2021/04/05 02:14:04;;;;;;;;;;;;;;;-0.90;79.27;99158.48;1700407;84;21603;-59
2021/04/05 02:16:31;;;;;;;22.50;11.35;;;;;;;-0.90;79.39;99149.14;1716786;83;20160;-59
2021/04/05 02:18:59;;;;;;;22.07;11.00;;;;;;;-0.96;79.62;99153.17;1747988;80;21129;-59
2021/04/05 02:21:29;;;;;;;27.22;12.47;;;;;;;-0.95;79.42;99148.94;1719910;82;21166;-59
2021/04/05 02:24:04;;;;;;;30.00;13.70;;;;;;;-0.96;79.32;99156.67;1762002;81;21179;-59
2021/04/05 02:26:33;;;;;;;35.25;15.68;;;;;;;-1.05;79.28;99144.56;1775653;81;21161;-59
2021/04/05 02:29:01;;;;;;;36.95;15.75;;;;;;;-0.98;79.23;99152.55;1719856;82;21208;-59
2021/04/05 02:31:30;;;;;;;28.90;12.88;;;;;;;-1.01;79.28;99151.12;1777998;81;21323;-59
2021/04/05 02:33:59;;;;;;;21.87;12.20;;;;;;;-1.04;79.32;99152.38;1739417;82;21173;-59
2021/04/05 02:36:30;;;;;;;25.85;12.85;;;;;;;-1.01;79.29;99155.14;1770414;81;21292;-59
2021/04/05 02:39:03;;;;;;;25.92;13.25;;;;;;;-1.03;79.29;99154.55;1754220;81;21159;-59
2021/04/05 02:41:31;;;;;;;26.87;14.50;;;;;;;-1.05;79.23;99152.58;1755501;81;21150;-59
2021/04/05 02:43:59;;;;;;;30.10;14.60;;;;;;;-1.08;79.07;99146.33;1750185;80;21186;-59
2021/04/05 02:46:29;;;;;;;34.05;14.13;;;;;;;-1.09;79.03;99151.36;1775212;81;21130;-59
2021/04/05 02:48:59;;;;;;;44.63;18.70;;;;;;;-1.14;78.97;99145.84;1722665;82;21597;-59
2021/04/05 02:51:27;;;;;;;45.33;19.12;;;;;;;-1.18;79.06;99151.30;1777186;80;21165;-59
2021/04/05 02:53:58;;;;;;;41.18;18.27;;;;;;;-1.22;79.35;99147.41;1777634;80;21112;-59
2021/04/05 02:56:25;;;;;;;48.20;19.12;;;;;;;-1.17;79.40;99148.94;1752042;80;21121;-59
2021/04/05 02:58:54;;;;;;;39.45;19.07;;;;;;;-1.14;79.55;99145.34;1733591;81;21617;-59
2021/04/05 03:01:23;;;;;;;38.05;16.45;;;;;;;-1.09;79.84;99143.34;1752326;81;21153;-59
2021/04/05 03:03:57;;;;;;;31.15;13.48;;;;;;;-1.03;79.96;99139.30;1711126;84;21208;-60
2021/04/05 03:06:26;;;;;;;29.48;12.90;;;;;;;-0.98;79.97;99138.68;1766352;81;22170;-59
2021/04/05 03:08:55;;;;;;;22.95;11.22;;;;;;;-0.94;79.88;99137.73;1734497;82;21118;-59
2021/04/05 03:11:23;;;;;;;22.87;10.50;;;;;;;-0.84;79.57;99130.08;1745302;81;21629;-60
2021/04/05 03:13:51;;;;;;;22.22;10.00;;;;;;;-0.86;79.57;99124.14;1720986;80;21729;-59
2021/04/05 03:16:23;;;;;;;18.05;8.45;;;;;;;-0.91;79.72;99123.44;1729060;82;21613;-59
2021/04/05 03:18:53;;;;;;;17.57;9.30;;;;;;;-0.99;79.67;99106.30;1753948;80;21725;-59
2021/04/05 03:21:22;;;;;;;22.02;9.75;;;;;;;-0.87;79.68;99118.48;1753378;80;21169;-59
2021/04/05 03:23:49;;;;;;;25.90;11.48;;;;;;;-0.87;79.44;99118.48;1759658;80;21763;-59
2021/04/05 03:26:17;;;;;;;33.13;15.88;;;;;;;-0.90;79.41;99117.58;1763152;80;21541;-59
2021/04/05 03:28:44;;;;;;;37.55;17.67;;;;;;;-0.95;79.45;99116.05;1753002;80;21168;-59
2021/04/05 03:31:20;;;;;;;28.75;14.73;;;;;;;-0.95;79.39;99121.39;1778785;80;21180;-59
2021/04/05 03:33:57;;;;;;;25.20;13.32;;;;;;;-0.99;79.42;99113.53;1765360;79;21770;-59
2021/04/05 03:36:35;;;;;;;22.65;11.43;;;;;;;-1.03;79.52;99119.27;1762387;81;21746;-59
2021/04/05 03:39:04;;;;;;;19.02;11.03;;;;;;;-1.02;79.55;99117.42;1754883;80;21141;-59
2021/04/05 03:41:54;;;;;;;16.55;10.25;;;;;;;-1.00;79.58;99110.03;1736694;82;21652;-59
2021/04/05 03:44:49;;;;;;;18.40;9.65;;;;;;;-0.93;79.49;99111.33;1705147;83;21173;-61
2021/04/05 03:48:05;;;;;;;18.00;10.40;;;;;;;-0.98;79.64;99111.96;1745160;82;21169;-61
2021/04/05 03:50:42;;;;;;;14.85;9.33;;;;;;;-0.91;79.61;99114.09;1762424;80;21234;-60
2021/04/05 03:53:40;;;;;;;17.40;9.58;;;;;;;-0.86;79.71;99112.95;1757681;80;21183;-60
2021/04/05 03:56:16;;;;;;;15.30;8.00;;;;;;;-0.84;80.00;99109.53;1732263;82;21739;-60
2021/04/05 03:58:48;;;;;;;16.97;9.45;;;;;;;-0.79;79.87;99113.73;1777893;80;21110;-60
2021/04/05 04:01:20;;;;;;;18.02;9.25;;;;;;;-0.77;79.75;99112.98;1752937;82;21496;-60
2021/04/05 04:04:09;;;;;;;16.45;9.68;;;;;;;-0.66;79.44;99118.99;1772236;80;21149;-60
2021/04/05 04:06:44;;;;;;;21.45;10.38;;;;;;;-0.67;79.55;99112.00;1716853;83;21200;-60
2021/04/05 04:09:08;;;;;;;21.02;10.05;;;;;;;-0.72;79.68;99107.01;1694559;83;21331;-60
2021/04/05 04:11:36;;;;;;;18.95;10.98;;;;;;;-0.72;79.70;99110.50;1716626;83;21147;-60
2021/04/05 04:14:07;;;;;;;17.92;9.85;;;;;;;-0.71;79.88;99122.02;1708222;83;21205;-60
2021/04/05 04:16:34;;;;;;;17.30;9.13;;;;;;;-0.56;79.73;99110.50;1675367;84;21113;-60
2021/04/05 04:19:03;;;;;;;19.00;11.60;;;;;;;-0.53;79.80;99114.89;1731481;82;21178;-60
2021/04/05 04:21:31;;;;;;;28.40;16.10;;;;;;;-0.58;79.98;99124.61;1718645;83;21177;-60
2021/04/05 04:24:00;;;;;;;28.42;15.55;;;;;;;-0.56;79.94;99115.84;1728253;83;21159;-60
2021/04/05 04:26:32;;;;;;;28.35;14.87;;;;;;;-0.55;80.09;99111.63;1716154;82;21437;-60
2021/04/05 04:29:00;;;;;;;22.55;12.43;;;;;;;-0.42;79.90;99107.21;1731678;83;21596;-60
2021/04/05 04:31:28;;;;;;;24.95;14.13;;;;;;;-0.30;79.56;99106.31;1727755;83;21228;-61
2021/04/05 04:33:56;;;;;;;23.87;13.03;;;;;;;-0.32;79.53;99099.55;1716309;83;21185;-60
2021/04/05 04:36:26;;;;;;;22.62;12.18;;;;;;;-0.36;79.63;99099.69;1705154;83;21141;-60
2021/04/05 04:38:55;;;;;;;23.42;11.88;;;;;;;-0.23;79.53;99101.73;1719976;83;21287;-60
2021/04/05 04:41:26;;;;;;;41.53;20.25;;;;;;;-0.11;79.45;99090.61;1725244;83;21165;-60
2021/04/05 04:44:00;;;;;;;33.23;15.90;;;;;;;-0.10;79.43;99091.44;1730989;82;21174;-60
2021/04/05 04:46:28;;;;;;;24.82;13.38;;;;;;;-0.10;79.43;99088.24;1731399;81;21620;-60
2021/04/05 04:49:00;;;;;;;21.12;12.50;;;;;;;-0.06;79.21;99083.27;1712809;83;21175;-60
2021/04/05 04:51:28;;;;;;;22.65;12.18;;;;;;;-0.05;79.13;99095.11;1729914;83;21157;-60
2021/04/05 04:53:57;;;;;;;20.32;10.85;;;;;;;0.12;78.72;99085.17;1716936;83;21197;-60
2021/04/05 04:56:25;;;;;;;18.23;9.28;;;;;;;0.19;78.62;99079.23;1730796;83;21450;-60
2021/04/05 04:59:02;;;;;;;15.98;8.68;;;;;;;0.18;78.69;99079.75;1722041;81;21157;-61
2021/04/05 05:01:31;;;;;;;17.73;8.43;;;;;;;0.15;78.57;99073.50;1729489;83;21181;-60
2021/04/05 05:04:03;;;;;;;18.98;9.90;;;;;;;0.22;78.36;99070.25;1696880;84;21222;-60
2021/04/05 05:06:30;;;;;;;18.92;9.33;;;;;;;0.30;78.11;99064.61;1729557;83;21157;-60
2021/04/05 05:08:59;;;;;;;21.87;11.03;;;;;;;0.34;78.55;99066.33;1698131;83;21175;-61
2021/04/05 05:11:27;;;;;;;19.67;11.40;;;;;;;0.43;79.10;99064.46;1711438;83;21206;-61
2021/04/05 05:13:56;;;;;;;21.85;11.53;;;;;;;0.58;79.49;99072.13;1702784;83;22009;-62
2021/04/05 05:16:25;;;;;;;19.07;10.38;;;;;;;0.79;79.23;99072.19;1743604;80;21588;-61
2021/04/05 05:18:59;;;;;;;16.37;9.03;;;;;;;1.19;79.62;99076.00;1717663;82;21190;-61
2021/04/05 05:21:34;;;;;;;15.45;8.35;;;;;;;1.61;78.05;99062.08;1758643;81;21133;-62
2021/04/05 05:24:05;;;;;;;15.83;9.13;;;;;;;1.81;76.12;99061.75;1760882;81;21291;-62
2021/04/05 05:26:35;;;;;;;16.07;8.00;;;;;;;1.97;75.58;99050.34;1778574;80;21177;-62
2021/04/05 05:29:10;;;;;;;16.50;8.53;;;;;;;2.23;75.44;99065.97;1765465;80;21177;-61
2021/04/05 05:31:41;;;;;;;14.53;8.78;;;;;;;2.50;75.15;99059.59;1759015;81;21177;-62
2021/04/05 05:34:12;;;;;;;14.40;8.48;;;;;;;2.79;74.52;99054.58;1705413;82;21218;-61
2021/04/05 05:36:41;;;;;;;13.13;8.25;;;;;;;3.17;74.46;99049.12;1759578;81;21153;-62
2021/04/05 05:39:11;;;;;;;14.60;9.25;;;;;;;3.58;73.76;99046.64;1729386;82;21186;-62
2021/04/05 05:42:10;;;;;;;15.25;8.80;;;;;;;4.01;73.50;99045.45;1755526;81;21313;-62
2021/04/05 05:44:45;;;;;;;13.62;8.58;;;;;;;4.59;71.65;99046.83;1730520;82;21162;-61
2021/04/05 05:47:33;;;;;;;14.13;8.38;;;;;;;4.82;69.86;99047.39;1774933;80;21157;-61
2021/04/05 05:50:43;;;;;;;12.95;8.08;;;;;;;4.91;68.50;99051.30;1740886;82;21938;-61
2021/04/05 05:53:46;;;;;;;11.03;7.00;;;;;;;5.01;68.62;99044.67;1744268;80;21168;-61
2021/04/05 05:56:44;;;;;;;10.72;6.30;;;;;;;5.34;67.43;99047.73;1752713;80;21154;-59
2021/04/05 05:59:20;;;;;;;11.70;6.55;;;;;;;5.49;67.49;99037.62;1777405;81;21616;-59
2021/04/05 06:02:12;;;;;;;14.20;6.75;;;;;;;5.68;66.85;99044.27;1777022;80;21299;-59
2021/04/05 06:05:08;;;;;;;11.00;6.10;;;;;;;5.76;66.65;99037.05;1730638;82;21284;-59
2021/04/05 06:08:24;;;;;;;12.82;7.75;;;;;;;6.00;66.21;99028.08;1704216;84;21197;-59
2021/04/05 06:11:21;;;;;;;13.60;8.15;;;;;;;6.21;65.15;99024.45;1678749;83;21576;-58
2021/04/05 06:14:04;;;;;;;10.78;6.30;;;;;;;6.49;63.08;99023.25;1684230;84;21260;-58
2021/04/05 06:16:37;;;;;;;11.95;5.95;;;;;;;6.58;61.85;99020.34;1761706;80;21118;-58
2021/04/05 06:19:36;;;;;;;10.72;6.33;;;;;;;6.72;60.96;99022.02;1761441;80;21137;-58
2021/04/05 06:22:21;;;;;;;9.58;5.62;;;;;;;6.76;61.14;99019.07;1713640;83;21633;-58
2021/04/05 06:25:11;;;;;;;12.25;6.15;;;;;;;6.90;61.20;99014.27;1764605;80;21141;-59
2021/04/05 06:28:07;;;;;;;10.20;6.37;;;;;;;7.01;59.59;99010.48;1755628;80;21182;-59
2021/04/05 06:31:02;;;;;;;9.60;5.55;;;;;;;6.96;59.89;99013.19;1771678;80;21176;-59
2021/04/05 06:33:36;;;;;;;9.30;5.75;;;;;;;7.30;60.61;99016.25;1777434;80;21165;-59
2021/04/05 06:36:18;;;;;;;10.93;5.85;;;;;;;7.56;59.08;99007.63;1790512;79;22684;-60
2021/04/05 06:38:55;;;;;;;9.38;5.67;;;;;;;7.68;59.64;99011.44;1756119;80;21548;-60
2021/04/05 06:41:38;;;;;;;9.03;5.50;;;;;;;7.88;58.27;99012.78;1749849;81;21177;-60
2021/04/05 06:44:31;;;;;;;9.43;5.80;;;;;;;8.10;55.78;99017.92;1739996;82;21156;-61
2021/04/05 06:47:40;;;;;;;16.20;7.05;;;;;;;8.41;57.30;99016.81;1743750;82;21295;-61
2021/04/05 06:50:48;;;;;;;8.63;4.62;;;;;;;8.57;54.73;99010.28;1739886;82;21177;-59
2021/04/05 06:53:54;;;;;;;8.95;4.92;;;;;;;8.62;53.20;99008.07;1739359;82;21315;-59
2021/04/05 06:56:46;;;;;;;9.83;5.12;;;;;;;8.86;51.82;99003.09;1735891;82;21537;-59
2021/04/05 06:59:57;;;;;;;6.33;3.67;;;;;;;9.11;49.09;99008.13;1729215;82;21492;-59
2021/04/05 07:02:56;;;;;;;8.43;4.97;;;;;;;9.32;51.46;99006.92;1738439;82;21545;-59
2021/04/05 07:05:46;;;;;;;6.62;3.95;;;;;;;9.47;48.96;99003.58;1745328;82;21129;-59
2021/04/05 07:08:24;;;;;;;7.95;5.17;;;;;;;9.58;47.21;98994.80;1750228;82;21634;-59
2021/04/05 07:11:27;;;;;;;7.53;3.55;;;;;;;9.43;48.26;98998.98;1739652;82;21176;-59
2021/04/05 07:14:25;;;;;;;5.62;3.35;;;;;;;9.42;46.01;98998.73;1744175;82;21145;-59
2021/04/05 07:17:05;;;;;;;5.58;2.90;;;;;;;9.42;44.35;98994.66;1745871;81;21177;-60
2021/04/05 07:20:03;;;;;;;4.50;2.08;;;;;;;9.46;43.82;98992.43;1736207;82;21291;-59
2021/04/05 07:22:53;;;;;;;5.78;2.05;;;;;;;9.58;44.28;98988.02;1721815;82;21154;-58
2021/04/05 07:26:07;;;;;;;3.37;2.10;;;;;;;9.73;40.15;98978.39;1733964;82;21175;-59
2021/04/05 07:28:43;;;;;;;3.70;1.65;;;;;;;9.71;41.35;98977.03;1740221;82;21768;-58
2021/04/05 07:31:41;;;;;;;3.70;1.92;;;;;;;9.78;40.50;98976.16;1746893;81;21141;-58
2021/04/05 07:34:29;;;;;;;3.80;2.37;;;;;;;9.78;42.20;98974.80;1715078;82;21214;-59
2021/04/05 07:37:19;;;;;;;2.58;1.02;;;;;;;9.93;42.16;98964.61;1739844;81;21161;-59
2021/04/05 07:40:01;;;;;;;2.87;1.32;;;;;;;10.20;37.94;98966.81;1751149;81;21181;-60
2021/04/05 07:43:00;;;;;;;2.55;1.12;;;;;;;10.37;37.66;98960.40;1725202;83;21150;-59
2021/04/05 07:46:21;;;;;;;3.67;0.95;;;;;;;10.48;37.30;98951.02;1728002;82;21296;-60
2021/04/05 07:49:13;;;;;;;2.95;1.20;;;;;;;10.65;36.04;98953.81;1642206;86;21171;-59
2021/04/05 07:51:57;;;;;;;2.60;1.10;;;;;;;10.33;35.83;98952.55;1734384;81;21161;-59
2021/04/05 07:54:27;;;;;;;2.45;0.70;;;;;;;10.18;35.79;98951.89;1747251;81;21304;-59
2021/04/05 07:57:05;;;;;;;2.35;1.00;;;;;;;10.08;35.51;98941.09;1728051;81;21463;-59
2021/04/05 08:00:03;;;;;;;1.92;1.00;;;;;;;9.94;36.26;98932.80;1740977;81;21161;-59
2021/04/05 08:02:45;;;;;;;2.72;1.50;;;;;;;9.94;36.80;98943.13;1756700;81;21228;-60
2021/04/05 08:06:00;;;;;;;2.98;1.40;;;;;;;9.95;38.43;98932.50;1716731;83;21307;-59
2021/04/05 08:08:52;;;;;;;3.33;1.37;;;;;;;10.20;37.72;98924.66;1706185;82;22373;-59
2021/04/05 08:11:49;;;;;;;2.70;1.30;;;;;;;10.54;37.91;98921.83;1684444;83;21143;-59
2021/04/05 08:14:31;;;;;;;5.78;3.37;;;;;;;10.75;37.14;98919.66;1708038;83;21317;-59
2021/04/05 08:17:29;;;;;;;3.50;1.40;;;;;;;10.92;38.14;98918.05;1726410;83;21178;-60
2021/04/05 08:20:18;;;;;;;3.02;1.42;;;;;;;11.15;36.19;98906.84;1711895;83;21118;-60
2021/04/05 08:23:00;;;;;;;6.53;2.45;;;;;;;11.15;36.00;98910.11;1693394;83;21190;-59
2021/04/05 08:25:48;;;;;;;4.00;1.50;;;;;;;11.08;36.11;98902.31;1702316;83;21161;-60
2021/04/05 08:28:37;;;;;;;2.05;1.10;;;;;;;11.07;35.15;98899.33;1714846;83;21216;-60
2021/04/05 08:31:49;;;;;;;2.47;1.30;;;;;;;10.91;34.81;98895.22;1722031;83;21166;-59
2021/04/05 08:34:39;;;;;;;2.50;0.90;;;;;;;10.65;34.95;98895.30;1717938;83;21350;-60
2021/04/05 08:37:48;;;;;;;2.20;1.02;;;;;;;9.97;36.45;98886.81;1718749;82;21150;-60
2021/04/05 08:40:54;;;;;;;2.27;1.25;;;;;;;9.48;37.25;98881.59;1724815;83;21920;-59
2021/04/05 08:43:44;;;;;;;2.08;1.22;;;;;;;9.14;38.20;98879.41;1715492;83;21300;-60
2021/04/05 08:46:17;;;;;;;5.70;1.35;;;;;;;8.96;38.77;98876.81;1713300;83;21185;-59
2021/04/05 08:51:36;;;;;;;1.80;1.20;;;;;;;9.11;38.64;98860.16;1771284;79;23028;-58
2021/04/05 08:54:06;;;;;;;4.35;1.70;;;;;;;8.99;38.06;98863.25;1713685;82;21153;-60
2021/04/05 08:56:50;;;;;;;4.62;1.80;;;;;;;8.84;37.97;98852.48;1697972;83;21145;-61
2021/04/05 08:59:47;;;;;;;3.80;1.60;;;;;;;8.73;38.67;98853.64;1709306;82;21160;-60
2021/04/05 09:02:34;;;;;;;3.55;1.80;;;;;;;8.72;39.41;98850.11;1706502;83;21175;-60
2021/04/05 09:05:02;;;;;;;3.27;1.93;;;;;;;8.68;39.87;98845.55;1683518;85;21346;-60
2021/04/05 09:07:52;;;;;;;3.50;1.50;;;;;;;8.59;39.71;98837.72;1721628;82;21565;-61
2021/04/05 09:10:28;;;;;;;3.90;1.45;;;;;;;8.55;40.65;98832.58;1693413;83;21354;-61
2021/04/05 09:13:00;;;;;;;2.55;1.12;;;;;;;8.57;40.42;98835.84;1721957;82;21145;-61
2021/04/05 09:15:51;;;;;;;2.20;1.15;;;;;;;8.65;40.54;98835.23;1712203;83;21200;-61
2021/04/05 09:19:16;;;;;;;1.95;0.90;;;;;;;8.68;38.94;98825.98;1699984;83;21169;-60
2021/04/05 09:22:18;;;;;;;2.77;0.85;;;;;;;8.72;38.40;98823.52;1667033;85;21192;-60
2021/04/05 09:25:42;;;;;;;2.02;0.80;;;;;;;8.74;38.20;98824.88;1667071;85;21216;-61
2021/04/05 09:28:46;;;;;;;2.85;1.40;;;;;;;8.75;36.38;98811.55;1668422;84;21183;-61
2021/04/05 09:31:45;;;;;;;5.33;2.30;;;;;;;8.80;37.52;98812.08;1660956;85;21196;-61
2021/04/05 09:34:59;;;;;;;5.87;2.22;;;;;;;8.83;37.05;98804.72;1667764;85;21200;-61
2021/04/05 09:37:49;;;;;;;2.98;1.40;;;;;;;8.81;37.25;98802.31;1666165;85;21778;-61
2021/04/05 09:40:34;;;;;;;2.45;1.05;;;;;;;8.63;37.51;98803.52;1663462;85;21144;-61
2021/04/05 09:43:48;;;;;;;2.87;1.40;;;;;;;8.44;37.81;98791.96;1646443;85;21229;-61
2021/04/05 09:46:48;;;;;;;3.22;1.50;;;;;;;8.35;38.44;98794.20;1662299;85;21224;-61
2021/04/05 09:49:27;;;;;;;4.50;1.90;;;;;;;8.40;38.88;98784.12;1638973;85;21218;-61
2021/04/05 09:52:09;;;;;;;8.03;3.85;;;;;;;8.47;37.97;98789.23;1672654;85;21471;-61
2021/04/05 09:54:55;;;;;;;12.30;6.28;;;;;;;8.49;37.36;98782.45;1656983;85;21311;-61
2021/04/05 09:57:33;;;;;;;4.95;2.30;;;;;;;8.55;37.10;98781.05;1660746;85;21173;-61
2021/04/05 10:00:01;;;;;;;2.42;1.10;;;;;;;8.72;37.43;98784.17;1631326;85;21308;-61
2021/04/05 10:02:45;;;;;;;3.52;1.70;;;;;;;8.94;37.25;98770.44;1620226;87;21298;-61
2021/04/05 10:05:12;;;;;;;5.58;1.87;;;;;;;9.14;37.10;98769.44;1665811;85;21212;-61
2021/04/05 10:07:42;;;;;;;3.00;1.55;;;;;;;9.22;36.02;98767.47;1679899;85;21301;-61
2021/04/05 10:10:12;;;;;;;2.90;1.35;;;;;;;9.25;36.92;98773.69;1628591;87;21735;-61
2021/04/05 10:12:41;;;;;;;2.02;1.02;;;;;;;9.27;36.16;98764.72;1655758;85;21186;-61
2021/04/05 10:15:11;;;;;;;3.25;1.30;;;;;;;9.30;36.03;98762.78;1653434;85;21192;-61
2021/04/05 10:17:43;;;;;;;3.08;1.17;;;;;;;9.25;36.52;98761.47;1625263;85;22067;-61
2021/04/05 10:20:12;;;;;;;6.17;2.90;;;;;;;9.22;35.19;98755.25;1647910;86;21172;-61
2021/04/05 10:22:45;;;;;;;5.62;2.30;;;;;;;9.27;35.12;98751.14;1673123;85;21155;-61
2021/04/05 10:25:14;;;;;;;4.65;2.10;;;;;;;9.38;36.03;98753.20;1652513;85;21839;-60
2021/04/05 10:27:42;;;;;;;4.55;2.40;;;;;;;9.49;35.15;98739.78;1649647;87;21349;-61
2021/04/05 10:30:15;;;;;;;5.78;2.20;;;;;;;9.67;36.31;98738.22;1664781;84;21215;-60
2021/04/05 10:32:42;;;;;;;3.25;1.70;;;;;;;9.74;34.07;98738.67;1624021;85;21188;-60
2021/04/05 10:35:11;;;;;;;4.97;2.83;;;;;;;9.84;35.27;98739.36;1684820;85;21191;-61
2021/04/05 10:37:44;;;;;;;4.85;1.85;;;;;;;9.96;36.30;98737.56;1678680;85;21728;-61
2021/04/05 10:40:16;;;;;;;5.22;2.22;;;;;;;10.08;34.62;98735.23;1674826;85;21141;-61
2021/04/05 10:42:50;;;;;;;4.20;1.90;;;;;;;10.06;33.16;98721.69;1674261;85;21616;-60
2021/04/05 10:45:24;;;;;;;3.85;1.80;;;;;;;9.84;33.83;98720.34;1674026;85;21205;-60
2021/04/05 10:48:05;;;;;;;3.47;1.67;;;;;;;9.68;35.84;98727.59;1667234;85;21220;-60
2021/04/05 10:50:37;;;;;;;3.05;1.75;;;;;;;9.60;36.01;98724.17;1665304;85;21145;-60
2021/04/05 10:53:08;;;;;;;3.15;1.10;;;;;;;9.52;36.56;98731.59;1650360;86;21189;-60
2021/04/05 10:55:39;;;;;;;2.72;0.75;;;;;;;9.43;35.99;98722.70;1655783;86;21185;-60
2021/04/05 10:58:10;;;;;;;2.55;1.10;;;;;;;9.32;35.59;98715.77;1649898;86;21238;-60
2021/04/05 11:00:39;;;;;;;11.63;3.50;;;;;;;9.16;35.09;98714.86;1630020;86;21193;-59
2021/04/05 11:03:19;;;;;;;9.15;4.20;;;;;;;9.03;36.49;98715.00;1644401;86;21229;-59
2021/04/05 11:05:46;;;;;;;7.28;4.00;;;;;;;8.94;36.80;98717.52;1642706;86;21233;-59
2021/04/05 11:08:20;;;;;;;7.33;3.12;;;;;;;8.89;37.62;98701.83;1657021;84;21869;-60
2021/04/05 11:10:48;;;;;;;6.78;2.72;;;;;;;8.83;37.60;98713.27;1663846;86;21648;-59
2021/04/05 11:13:19;;;;;;;4.62;1.95;;;;;;;8.76;37.83;98709.25;1629022;86;21385;-60
2021/04/05 11:15:47;;;;;;;5.53;2.15;;;;;;;8.72;37.35;98703.59;1655369;86;21621;-60
2021/04/05 11:18:17;;;;;;;7.42;3.60;;;;;;;8.69;38.12;98700.64;1650751;86;21177;-60
2021/04/05 11:20:48;;;;;;;4.40;1.40;;;;;;;8.73;38.61;98698.44;1650028;86;21193;-61
2021/04/05 11:23:18;;;;;;;1.95;0.82;;;;;;;8.81;38.35;98688.88;1634759;86;21645;-59
2021/04/05 11:25:51;;;;;;;2.60;1.07;;;;;;;9.06;39.56;98679.12;1679662;84;21589;-59
2021/04/05 11:28:28;;;;;;;18.73;7.40;;;;;;;9.38;36.28;98671.17;1649628;86;21246;-59
2021/04/05 11:31:15;;;;;;;13.25;7.15;;;;;;;9.61;37.16;98660.02;1648398;86;21170;-60
2021/04/05 11:33:55;;;;;;;33.13;16.20;;;;;;;9.99;36.63;98660.30;1641782;86;21185;-59
2021/04/05 11:36:23;;;;;;;94.30;46.80;;;;;;;10.40;33.82;98660.55;1642972;86;21621;-59
2021/04/05 11:38:52;;;;;;;40.98;19.07;;;;;;;10.55;33.96;98654.59;1661139;85;21604;-59
2021/04/05 11:41:28;;;;;;;8.18;4.10;;;;;;;10.63;34.63;98635.66;1661852;85;21545;-61
2021/04/05 11:43:59;;;;;;;3.15;1.85;;;;;;;10.93;33.16;98645.21;1652440;85;21196;-60
2021/04/05 11:46:30;;;;;;;68.60;30.40;;;;;;;10.79;32.51;98640.30;1656201;85;21744;-60
2021/04/05 11:49:12;;;;;;;10.88;4.20;;;;;;;10.62;33.63;98635.98;1693899;84;21848;-61
2021/04/05 11:51:49;;;;;;;80.95;36.25;;;;;;;10.38;33.96;98636.89;1687992;83;21107;-61
2021/04/05 11:54:37;;;;;;;122.20;53.17;;;;;;;10.22;34.68;98638.80;1679172;83;21371;-61
2021/04/05 11:57:09;;;;;;;19.48;9.70;;;;;;;10.19;35.18;98624.44;1686549;84;21149;-60
2021/04/05 11:59:47;;;;;;;146.15;62.78;;;;;;;10.34;35.74;98629.09;1699924;84;21144;-60
2021/04/05 12:02:25;;;;;;;17.17;6.70;;;;;;;10.55;34.64;98621.40;1693532;82;21300;-60
2021/04/05 12:05:10;;;;;;;120.50;57.55;;;;;;;10.72;33.69;98616.74;1702394;83;21689;-60
2021/04/05 12:07:40;;;;;;;11.93;6.00;;;;;;;10.80;34.15;98609.25;1690424;82;21205;-61
2021/04/05 12:10:18;;;;;;;75.65;35.75;;;;;;;10.94;31.54;98620.42;1644231;85;21180;-60
2021/04/05 12:12:45;;;;;;;45.12;21.30;;;;;;;11.09;31.11;98619.30;1684092;84;21184;-60
2021/04/05 12:15:16;;;;;;;59.45;26.62;;;;;;;11.16;29.64;98615.62;1680004;84;21178;-62
2021/04/05 12:17:52;;;;;;;63.02;29.27;;;;;;;11.10;29.45;98610.02;1680161;82;21735;-61
2021/04/05 12:20:25;;;;;;;65.83;31.05;;;;;;;11.05;30.18;98602.52;1681041;82;21142;-62
2021/04/05 12:22:57;;;;;;;37.80;16.75;;;;;;;10.96;30.02;98594.23;1694984;84;21155;-61